首页
METAR-TAF:

METAR-TAF

机场 :

奥利弗·坦博国际机场

约翰内斯堡, 南非共和國

纬度: 26-08S, 经度: 028-14E, 海拔: 1694米

当前天气观测

该预报发布于39分钟前的09:30 UTC
风速9节,风向
温度 15°C
湿度 44%
气压 1033 hPa
能见度10公里或以上
1500米以下无云,无积雨云

METAR: FAOR 210930Z 35009KT CAVOK 15/03 Q1033 NOSIG

时间: 12:09 (10:09 UTC)

预报

该预报发布于6小时和9分钟前的04:00 UTC
预报有效从21日的 06点(UTC)到 22日的 12点(UTC)
风速10节,风向
能見度: 5000
轻雾
几率 40% :
短暂存在
从 21日的 06点(UTC)到 21日的 07点(UTC)
能見度: 0800
层高于200英尺
从 21日的 0800点(UTC)
风速12节,风向
能见度10公里或以上
1500米以下无云,无积雨云
成为
从 21日的 14点(UTC)到 21日的 16点(UTC)
风速3节,风向多变
几率 30% :
短暂存在
从 22日的 03点(UTC)到 22日的 05点(UTC)
能見度: 4500
轻雾
成为
从 22日的 08点(UTC)到 22日的 10点(UTC)
风速10节,风向

TAF: FAOR 210400Z 2106/2212 01010KT 5000 BR NSC TX18/2113Z TN05/2204Z PROB40 TEMPO 2106/2107 0800 FG VV002 FM210800 35012KT CAVOK BECMG 2114/2116 VRB03KT PROB30 TEMPO 2203/2205 4500 BR NSC BECMG 2208/2210 19010KT

超过4000个机场的气象观测和天气预报(METAR&TAF报告)。

可查询的气象台以黄色和红色小点在地图上表示。

将鼠标移到小点上方,可查看气象台名称。

然后点击查看天气观测和预报。

如需切换地图:点击带黑十字的绿色按钮放大地图;点击带横线的绿色按钮缩小地图;或者点击绿色箭头查看邻近地区的地图。


METAR-TAF: